Stouffville Airport

CA-0635 · Ontario, Kanada

METAR-Geschichte CA-0635 · Stouffville Airport

Unten siehst du die METARs der letzten paar Tage. Wähle ein Jahr, um ältere METARs ab dem Jahr 2007 zu durchsuchen.

27. November 2022

Uhrzeit Code Wetter Temp. Sichtweite Wolkendecke Wind METAR/SPECI
21:00
M
4 °C 10 mi 1.800 ft 340° 340° 16 - 22 kt METAR CYYZ 280200Z 34016G22KT 10SM FEW008 BKN018 OVC030 04/04 A2942 RMK SF2SC3SC3 SLP970
20:00
M
4 °C 4 mi 1.500 ft 350° 350° 14 kt METAR CYYZ 280100Z 35014KT 4SM -DZ BR SCT007 OVC015 04/04 A2939 RMK SF3ST5 SLP959
19:00
M
4 °C 3 mi 1.400 ft 350° 350° 13 kt METAR CYYZ 280000Z 35013KT 3SM -DZ BR SCT006 OVC014 04/04 A2935 RMK SF3ST5 SLP945
18:20
I
5 °C 2½ mi 1.400 ft 360° 360° 11 kt METAR CYYZ 272320Z 36011KT 2 1/2SM -DZ BR FEW007 OVC014 05/05 A2934 RMK SF2ST6 SLP941
18:00
I
5 °C 4 mi 900 ft 360° 360° 10 kt METAR CYYZ 272300Z 36010KT 4SM -DZ BR OVC009 05/05 A2934 RMK SC8 SLP943
17:00
M
4 °C 4 mi 1.000 ft 030° 030° 9 kt METAR CYYZ 272200Z 03009KT 4SM -RA BR OVC010 04/04 A2933 RMK SC8 SLP938
16:29
M
5 °C 6 mi 1.100 ft 030° 030° 6 kt METAR CYYZ 272129Z 03006KT 6SM BR BKN011 OVC020 05/05 A2934 RMK SC5SC3 SLP940
16:00
M
5 °C 6 mi 1.800 ft 050° 050° 5 kt METAR CYYZ 272100Z 05005KT 6SM -RA OVC018 05/05 A2934 RMK SC8 SLP941
15:31
M
5 °C 6 mi 1.800 ft 040° 040° 9 - 16 kt METAR CYYZ 272031Z 04009G16KT 6SM -RA BKN018 OVC030 05/04 A2934 RMK SC6SC2 SLP941
15:00
V
5 °C 15 mi 3.100 ft 030° 030° 10 kt METAR CYYZ 272000Z 03010KT 15SM BKN031 OVC045 05/05 A2936 RMK SC6SC2 SLP948
14:00
V
5 °C 15 mi 3.200 ft 050° 050° 8 kt METAR CYYZ 271900Z 05008KT 15SM OVC032 05/05 A2939 RMK SC8 PRESFR SLP958
13:46
V
5 °C 15 mi 3.300 ft 050° 050° 10 kt SPECI CYYZ 271846Z 05010KT 15SM OVC033 05/05 A2940 RMK SC8 PRESFR SLP964
13:00
V
5 °C 6 mi 3.500 ft 080° 080° 10 kt METAR CYYZ 271800Z 08010KT 6SM -RA BR BKN035 OVC060 05/05 A2946 RMK SC6SC2 PRESFR SLP981
12:00
V
6 °C 5 mi 3.300 ft 090° 090° 7 kt METAR CYYZ 271700Z 09007KT 5SM -RA BR BKN033 OVC045 06/06 A2952 RMK SC6SC2 PRESFR SLP003
11:00
V
6 °C 10 mi 5.000 ft 050° 050° 4 kt METAR CYYZ 271600Z 05004KT 10SM -RA BKN050 OVC075 06/06 A2956 RMK SC6AC2 PRESFR SLP017
10:00
V
6 °C 12 mi 6.700 ft 050° 050° 5 kt METAR CYYZ 271500Z 05005KT 12SM -RA BKN067 BKN090 OVC150 06/03 A2960 RMK AC5AC2AC1 SLP029
09:00
V
5 °C 15 mi 11.000 ft 070° 070° 2 kt METAR CYYZ 271400Z 07002KT 15SM FEW060 BKN110 OVC150 05/02 A2963 RMK SC1AC4AC3 SLP040
08:00
V
5 °C 15 mi 15.000 ft 080° 080° 2 kt METAR CYYZ 271300Z 08002KT 15SM BKN150 BKN240 05/02 A2966 RMK AC6CI1 SLP049
07:00
V
5 °C 15 mi 17.000 ft Var Var 2 kt METAR CYYZ 271200Z VRB02KT 15SM BKN170 BKN240 05/02 A2969 RMK AC6CI1 SLP059
06:00
V
5 °C 15 mi 23.000 ft 130° 130° 3 kt METAR CYYZ 271100Z 13003KT 120V180 15SM SCT180 BKN230 05/02 A2971 RMK AC3CS4 SLP068
05:00
V
6 °C 15 mi 19.000 ft 230° 230° 7 kt METAR CYYZ 271000Z 23007KT 15SM OVC190 06/03 A2974 RMK AS8 SLP076
04:00
V
5 °C 15 mi 24.000 ft 240° 240° 8 kt METAR CYYZ 270900Z 24008KT 15SM BKN240 05/03 A2976 RMK CI7 SLP083
03:00
V
5 °C 15 mi 25.000 ft 240° 240° 9 kt METAR CYYZ 270800Z 24009KT 15SM BKN250 05/01 A2978 RMK CI6 SLP088
02:00
V
5 °C 15 mi - 240° 240° 8 kt METAR CYYZ 270700Z 24008KT 15SM SCT250 05/M01 A2978 RMK CI4 SLP091
01:00
V
5 °C 15 mi - 240° 240° 10 kt METAR CYYZ 270600Z 24010KT 15SM FEW250 05/M02 A2979 RMK CI2 SLP092
00:00
V
6 °C 15 mi - 230° 230° 13 kt METAR CYYZ 270500Z 23013KT 15SM FEW250 06/M02 A2981 RMK CI2 SLP099

26. November 2022

Uhrzeit Code Wetter Temp. Sichtweite Wolkendecke Wind METAR/SPECI
23:00
V
6 °C 15 mi - 210° 210° 9 kt METAR CYYZ 270400Z 21009KT 15SM SKC 06/M02 A2982 RMK SLP104
22:00
V
4 °C 15 mi - 250° 250° 8 kt METAR CYYZ 270300Z 25008KT 15SM SKC 04/M02 A2984 RMK SLP111
21:00
V
6 °C 15 mi - 240° 240° 9 kt METAR CYYZ 270200Z 24009KT 15SM SKC 06/M01 A2987 RMK SLP121
20:00
V
6 °C 15 mi - 210° 210° 7 kt METAR CYYZ 270100Z 21007KT 15SM SKC 06/00 A2985 RMK SLP117
19:00
V
7 °C 15 mi - 220° 220° 9 - 17 kt METAR CYYZ 270000Z 22009G17KT 15SM FEW250 07/01 A2987 RMK CI1 CI TR SLP122
18:00
V
9 °C 15 mi - 210° 210° 9 kt METAR CYYZ 262300Z 21009KT 15SM FEW180 09/00 A2987 RMK AC1 SLP123
17:00
V
10 °C 15 mi - 210° 210° 8 - 15 kt METAR CYYZ 262200Z 21008G15KT 15SM SKC 10/M00 A2988 RMK SLP126
16:00
V
12 °C 15 mi - 210° 210° 15 kt METAR CYYZ 262100Z 21015KT 15SM SKC 12/M01 A2986 RMK SLP119
15:00
V
13 °C 15 mi - 230° 230° 12 - 19 kt METAR CYYZ 262000Z 23012G19KT 15SM SKC 13/M04 A2986 RMK SLP118 DENSITY ALT 600FT
14:00
V
13 °C 15 mi - 220° 220° 13 - 21 kt METAR CYYZ 261900Z 22013G21KT 15SM FEW150 13/M03 A2987 RMK AC1 AC TR SLP122
13:00
V
11 °C 15 mi - 210° 210° 14 - 21 kt METAR CYYZ 261800Z 21014G21KT 15SM FEW250 11/M01 A2990 RMK CI1 SLP130
12:00
V
10 °C 15 mi - 220° 220° 15 - 21 kt METAR CYYZ 261700Z 22015G21KT 15SM FEW250 10/M01 A2993 RMK CI1 SLP143
11:00
V
7 °C 15 mi - 220° 220° 12 kt METAR CYYZ 261600Z 22012KT 15SM FEW250 07/M01 A2997 RMK CI1 SLP155
10:00
V
5 °C 15 mi - 230° 230° 14 kt METAR CYYZ 261500Z 23014KT 15SM SCT250 05/00 A2999 RMK CI4 SLP162
09:00
V
3 °C 15 mi - 240° 240° 9 kt METAR CYYZ 261400Z 24009KT 15SM SCT250 03/02 A3000 RMK CI3 SLP165
08:00
V
1 °C 15 mi - 160° 160° 5 kt METAR CYYZ 261300Z 16005KT 15SM SCT230 01/01 A2999 RMK CI4 SLP165
07:00
V
0 °C 15 mi - 220° 220° 4 kt METAR CYYZ 261200Z 22004KT 180V260 15SM FEW230 00/M00 A3001 RMK CI1 FROIN SLP171
06:00
V
0 °C 15 mi - 210° 210° 7 kt METAR CYYZ 261100Z 21007KT 15SM SKC 00/00 A3000 RMK FROIN SLP168
05:00
V
0 °C 15 mi - 180° 180° 4 kt METAR CYYZ 261000Z 18004KT 15SM SKC 00/00 A3002 RMK FROIN SLP174
04:00
V
1 °C 15 mi - 210° 210° 2 kt METAR CYYZ 260900Z 21002KT 15SM SKC 01/00 A3002 RMK SLP175
03:00
V
1 °C 15 mi - 210° 210° 4 kt METAR CYYZ 260800Z 21004KT 15SM SKC 01/M01 A3003 RMK SLP178
02:00
V
1 °C 15 mi - 240° 240° 4 kt METAR CYYZ 260700Z 24004KT 15SM SKC 01/M00 A3003 RMK SLP178
01:00
V
1 °C 15 mi - 240° 240° 7 kt METAR CYYZ 260600Z 24007KT 15SM FEW030 01/M01 A3004 RMK SC2 SLP180
00:11
V
2 °C 15 mi - 240° 240° 7 kt METAR CYYZ 260511Z 24007KT 15SM SCT030 02/M02 A3003 RMK SC3 SLP178
00:00
V
3 °C 15 mi 3.300 ft 230° 230° 8 kt METAR CYYZ 260500Z 23008KT 15SM BKN033 03/M01 A3004 RMK SC5 SLP179

25. November 2022

Uhrzeit Code Wetter Temp. Sichtweite Wolkendecke Wind METAR/SPECI
23:00
V
4 °C 15 mi 3.900 ft 270° 270° 7 kt METAR CYYZ 260400Z 27007KT 15SM BKN039 04/M01 A3003 RMK SC6 SLP177
22:00
V
4 °C 15 mi 4.000 ft 250° 250° 9 kt METAR CYYZ 260300Z 25009KT 15SM BKN040 04/00 A3003 RMK SC7 SLP178
21:00
V
4 °C 15 mi 4.100 ft 260° 260° 8 kt METAR CYYZ 260200Z 26008KT 15SM FEW025 BKN041 04/01 A3003 RMK CF1SC7 CF TR SLP178
20:00
V
4 °C 15 mi 4.700 ft 280° 280° 12 kt METAR CYYZ 260100Z 28012KT 15SM FEW028 BKN047 04/M00 A3003 RMK CF1SC6 SLP176
19:00
V
4 °C 15 mi 4.500 ft 280° 280° 10 - 17 kt METAR CYYZ 260000Z 28010G17KT 15SM FEW025 BKN045 04/00 A3001 RMK CF1SC7 CF TR SLP169
18:00
V
4 °C 15 mi 5.000 ft 280° 280° 11 kt METAR CYYZ 252300Z 28011KT 15SM FEW030 BKN050 04/00 A3001 RMK CF1SC7 CF TR SLP168
17:00
V
5 °C 15 mi 5.000 ft 290° 290° 12 - 19 kt METAR CYYZ 252200Z 29012G19KT 15SM FEW030 OVC050 05/M00 A2999 RMK CF1SC8 CF TR SLP163
16:00
V
5 °C 15 mi 5.500 ft 290° 290° 17 - 24 kt METAR CYYZ 252100Z 29017G24KT 15SM FEW030 OVC055 05/M00 A2997 RMK CF1SC7 SLP155
15:00
V
6 °C 15 mi 6.000 ft 290° 290° 15 - 21 kt METAR CYYZ 252000Z 29015G21KT 15SM SCT030 OVC060 06/M00 A2995 RMK CF3SC5 SLP148
14:37
V
6 °C 15 mi 6.000 ft 300° 300° 17 kt METAR CYYZ 251937Z 30017KT 15SM SCT030 OVC060 06/M00 A2994 RMK CU3SC5 SLP144
14:00
V
6 °C 15 mi 5.800 ft 290° 290° 14 kt METAR CYYZ 251900Z 29014KT 15SM -SHRA SCT030 OVC058 06/M00 A2993 RMK CU4SC4 SLP140
13:00
V
7 °C 15 mi 5.000 ft 300° 300° 21 - 28 kt METAR CYYZ 251800Z 30021G28KT 15SM FEW030 BKN050 OVC120 07/M00 A2992 RMK CF1SC6AC1 SLP139
12:00
V
6 °C 15 mi 3.000 ft 300° 300° 20 kt METAR CYYZ 251700Z 30020KT 15SM BKN030 BKN050 06/M00 A2991 RMK SC7SC1 SC TR SLP135
11:00
V
6 °C 15 mi 4.700 ft 290° 290° 19 - 27 kt METAR CYYZ 251600Z 29019G27KT 15SM SCT025 BKN047 06/00 A2991 RMK CU3SC4 SLP134
10:49
V
6 °C 15 mi 5.000 ft 300° 300° 23 kt METAR CYYZ 251549Z 30023KT 15SM SCT025 BKN050 06/01 A2991 RMK CU3SC4 SLP134
10:22
V
6 °C 15 mi 4.500 ft 300° 300° 21 - 30 kt METAR CYYZ 251522Z 30021G30KT 15SM -RA FEW025 BKN045 BKN180 06/01 A2991 RMK CF1SC7AC1 CF TR AC TR SLP133
10:00
V
7 °C 15 mi 25.000 ft 300° 300° 16 - 24 kt METAR CYYZ 251500Z 30016G24KT 15SM SCT040 BKN250 07/01 A2989 RMK SC6CI1 SLP129
09:21
V
6 °C 15 mi 3.800 ft 290° 290° 17 - 28 kt METAR CYYZ 251421Z 29017G28KT 15SM BKN038 06/02 A2988 RMK SC7 SLP127
09:00
M
5 °C 15 mi 2.500 ft 300° 300° 18 - 23 kt METAR CYYZ 251400Z 30018G23KT 15SM -RA BKN025 05/03 A2988 RMK SC7 SLP126
08:30
M
6 °C 15 mi 2.200 ft 300° 300° 22 kt METAR CYYZ 251330Z 30022KT 15SM -RA OVC022 06/03 A2987 RMK SC8 SLP123
08:00
M
6 °C 15 mi 1.800 ft 300° 300° 18 - 30 kt METAR CYYZ 251300Z 30018G30KT 15SM OVC018 06/04 A2985 RMK SC8 SLP115
07:00
M
7 °C 15 mi 1.500 ft 290° 290° 19 kt METAR CYYZ 251200Z 29019KT 15SM BKN015 07/05 A2979 RMK ST7 SLP096
06:53
M
7 °C 15 mi 1.500 ft 290° 290° 15 - 26 kt METAR CYYZ 251153Z 29015G26KT 15SM BKN015 07/06 A2980 RMK ST7 SLP099
06:00
M
7 °C 4 mi 1.200 ft 280° 280° 15 - 20 kt METAR CYYZ 251100Z 28015G20KT 4SM -DZ BR OVC012 07/07 A2980 RMK SC8 SLP099
05:00
M
8 °C 6 mi 1.300 ft 270° 270° 14 - 20 kt METAR CYYZ 251000Z 27014G20KT 6SM BR OVC013 08/07 A2979 RMK SC8 SLP094

Wir und Dritte verfolgen dein Internetverhalten auf unserer Website mit Cookies. Wenn du fortfährst, gehen wir davon aus, dass du mit unserer Cookie-Richtlinie einverstanden bist.